Hansville, Washington
Current Conditions -  °F | °C
As of 10:53 AM on Monday 20 Oct 2014 (Local Time) from KPAE Reporting Station
Clear Clear  
Wind Chill: 59°   Ceiling: Unl
Heat Index: 59°   Visibility: 10mi
Dew Point: 52°   Wind: 17mph
Humidity: 78%   Direction: 190°S
Pressure: 29.76"   Gusts: 28mph
Location:  47.92°N, 122.56°W
Report Text: KPAE 201753Z 19015G24KT 10SM CLR 15/11 A2976 RMK AO2 SLP074 60002 T01500111 10156 20139 53009
Loading
Personal Weather Stations






























Interactive Weather Map
Tropical Storm Tracking
New forecast layout! Learn more

10-Day Weather Forecast

Advertisements
Track Severe Weather on mobile